To NAV CANADA Home Page Login to a new session Search on AWWS site Disclaimer Vers la page française équivalente Tips FAQ What's new on the site To the Forecasts and Observations / NOTAM section To "File a Flight Plan" website Publications and other links Update of the User's profile FIC Telephone Numbers My Weather Data Folder Route Weather Data Regional Weather Data Local Weather Data To the Forecasts and Observations / NOTAM section
Request Generated 10/29/2020 at 11:25:51 UTC . Weather information available at that time is displayed.

METAR/TAF

MONTREAL/PIERRE-ELLIOTT-TRUDEAU INTL/QC    

METAR CYUL 291100Z 34004KT 15SM BKN035 06/02 A2991 RMK SC7 SLP130=
METAR CYUL 291000Z 33004KT 15SM BKN033 OVC042 06/02 A2989 RMK SC6SC2 SLP126=
METAR CYUL 290900Z 27002KT 15SM -SHRA OVC038 06/02 A2989 RMK SC8 CVCTV CLD EMBD SLP125=

TAF CYUL 290838Z 2909/3006 32008KT P6SM BKN040 OVC070
BECMG 2915/2917 04010KT
FM300100 03015G25KT P6SM FEW040 BKN220
RMK NXT FCST BY 291200Z=
Your time UTC time
Weather data provided by Environment Canada and NAV CANADA